createdAt,value
2022-12-29T00:03:53.433Z,5.80
2022-12-29T00:09:00.174Z,5.80
2022-12-29T00:14:26.192Z,5.80
2022-12-29T00:19:48.349Z,5.82
2022-12-29T00:25:21.389Z,5.88
2022-12-29T00:30:41.832Z,5.90
2022-12-29T00:35:48.433Z,5.90
2022-12-29T00:41:04.915Z,5.90
2022-12-29T00:46:04.991Z,5.90
2022-12-29T00:51:04.294Z,5.90
2022-12-29T00:56:03.946Z,5.90
2022-12-29T01:01:10.447Z,5.90
2022-12-29T01:06:13.015Z,5.92
2022-12-29T01:11:15.696Z,5.94
2022-12-29T01:16:17.173Z,5.92
2022-12-29T01:21:18.150Z,5.90
2022-12-29T01:26:19.122Z,5.90
2022-12-29T01:31:19.366Z,5.90
2022-12-29T01:36:20.278Z,5.90
2022-12-29T01:41:20.619Z,5.90
2022-12-29T01:46:29.156Z,5.90
2022-12-29T01:51:34.064Z,5.90
2022-12-29T01:56:35.349Z,5.86
2022-12-29T02:01:35.442Z,5.80
2022-12-29T02:06:42.387Z,5.80
2022-12-29T02:11:42.818Z,5.80
2022-12-29T02:17:01.826Z,5.80
2022-12-29T02:22:19.269Z,5.74
2022-12-29T02:27:58.381Z,5.70
2022-12-29T02:33:09.769Z,5.70
2022-12-29T02:38:26.968Z,5.60
2022-12-29T02:43:34.323Z,5.58
2022-12-29T02:48:45.408Z,5.50
2022-12-29T02:54:08.444Z,5.40
2022-12-29T02:59:08.632Z,5.30
2022-12-29T03:04:34.504Z,5.20
2022-12-29T03:09:45.826Z,5.10
2022-12-29T03:15:17.625Z,5.00
2022-12-29T03:20:25.483Z,5.00
2022-12-29T03:25:33.037Z,4.90
2022-12-29T03:30:38.038Z,4.78
2022-12-29T03:35:43.985Z,4.70
2022-12-29T03:40:48.342Z,4.60
2022-12-29T03:45:47.617Z,4.50
2022-12-29T03:50:46.573Z,4.50
2022-12-29T03:55:46.502Z,4.50
2022-12-29T04:00:46.071Z,4.40
2022-12-29T04:05:45.908Z,4.40
2022-12-29T04:10:45.944Z,4.30
2022-12-29T04:15:48.917Z,4.20
2022-12-29T04:21:03.685Z,4.20
2022-12-29T04:26:04.915Z,4.10
2022-12-29T04:31:04.432Z,4.10
2022-12-29T04:36:08.541Z,4.10
2022-12-29T04:41:09.865Z,4.10
2022-12-29T04:46:12.009Z,4.06
2022-12-29T04:51:24.019Z,4.00
2022-12-29T04:56:23.793Z,3.96
2022-12-29T05:01:23.106Z,3.90
2022-12-29T05:06:22.884Z,3.80
2022-12-29T05:11:23.091Z,3.80
2022-12-29T05:16:23.196Z,3.80
2022-12-29T05:21:23.798Z,3.80
2022-12-29T05:26:23.952Z,3.80
2022-12-29T05:31:37.714Z,3.80
2022-12-29T05:36:38.730Z,3.80
2022-12-29T05:41:40.807Z,3.74
2022-12-29T05:46:48.837Z,3.70
2022-12-29T05:51:48.726Z,3.74
2022-12-29T05:56:47.727Z,3.78
2022-12-29T06:01:47.896Z,3.74
2022-12-29T06:06:48.773Z,3.70
2022-12-29T06:11:57.329Z,3.70
2022-12-29T06:16:56.177Z,3.70
2022-12-29T06:21:56.544Z,3.70
2022-12-29T06:26:56.402Z,3.74
2022-12-29T06:31:59.227Z,3.80
2022-12-29T06:36:59.386Z,3.80
2022-12-29T06:41:59.684Z,3.80
2022-12-29T06:47:14.532Z,3.90
2022-12-29T06:52:13.633Z,3.90
2022-12-29T06:57:13.653Z,4.00
2022-12-29T07:02:16.180Z,4.00
2022-12-29T07:07:15.755Z,4.00
2022-12-29T07:12:15.166Z,4.10
2022-12-29T07:17:13.764Z,4.10
2022-12-29T07:22:14.280Z,4.20
2022-12-29T07:27:14.212Z,4.22
2022-12-29T07:32:14.558Z,4.30
2022-12-29T07:37:15.264Z,4.40
2022-12-29T07:42:14.855Z,4.40
2022-12-29T07:47:15.723Z,4.50
2022-12-29T07:52:15.374Z,4.60
2022-12-29T07:57:14.989Z,4.70
2022-12-29T08:02:16.889Z,4.78
2022-12-29T08:07:15.896Z,4.88
2022-12-29T08:12:16.481Z,4.92
2022-12-29T08:17:15.607Z,5.00
2022-12-29T08:22:17.361Z,5.10
2022-12-29T08:27:20.852Z,5.20
2022-12-29T08:32:21.113Z,5.24
2022-12-29T08:37:20.233Z,5.34
2022-12-29T08:42:19.107Z,5.48
2022-12-29T08:47:17.956Z,5.58
2022-12-29T08:52:17.559Z,5.70
2022-12-29T08:57:17.097Z,5.80
2022-12-29T09:02:34.364Z,6.00
2022-12-29T09:07:33.951Z,6.10
2022-12-29T09:12:36.539Z,6.20
2022-12-29T09:17:44.964Z,6.30
2022-12-29T09:22:45.104Z,6.40
2022-12-29T09:27:44.582Z,6.50
2022-12-29T09:32:45.557Z,6.60
2022-12-29T09:37:46.379Z,6.70
2022-12-29T09:43:14.975Z,6.72
2022-12-29T09:48:22.677Z,6.80
2022-12-29T09:53:29.671Z,6.90
2022-12-29T09:58:37.357Z,6.90
2022-12-29T10:03:50.820Z,7.00
2022-12-29T10:09:00.952Z,7.10
2022-12-29T10:14:22.521Z,7.10
2022-12-29T10:19:52.800Z,7.20
2022-12-29T10:24:57.549Z,7.20
2022-12-29T10:30:00.741Z,7.20
2022-12-29T10:35:07.736Z,7.30
2022-12-29T10:40:21.096Z,7.30
2022-12-29T10:45:24.322Z,7.40
2022-12-29T10:50:24.932Z,7.50
2022-12-29T10:55:30.999Z,7.50
2022-12-29T11:00:31.372Z,7.60
2022-12-29T11:05:38.191Z,7.70
2022-12-29T11:10:43.956Z,7.70
2022-12-29T11:15:48.472Z,7.80
2022-12-29T11:20:47.915Z,7.80
2022-12-29T11:25:46.989Z,7.80
2022-12-29T11:30:47.419Z,7.86
2022-12-29T11:35:47.792Z,7.90
2022-12-29T11:40:46.889Z,7.90
2022-12-29T11:45:51.715Z,8.00
2022-12-29T11:51:00.791Z,8.00
2022-12-29T11:56:06.927Z,8.00
2022-12-29T12:01:12.828Z,8.00
2022-12-29T12:06:21.921Z,8.00
2022-12-29T12:11:26.999Z,8.10
2022-12-29T12:16:35.147Z,8.10
2022-12-29T12:21:45.510Z,8.20
2022-12-29T12:26:57.632Z,8.20
2022-12-29T12:32:11.283Z,8.30
2022-12-29T12:37:42.814Z,8.38
2022-12-29T12:43:03.657Z,8.40
2022-12-29T12:48:24.937Z,8.40
2022-12-29T12:53:55.252Z,8.50
2022-12-29T12:59:10.112Z,8.50
2022-12-29T13:05:06.766Z,8.50
2022-12-29T13:10:26.527Z,8.60
2022-12-29T13:15:46.027Z,8.60
2022-12-29T13:20:55.046Z,8.70
2022-12-29T13:26:05.318Z,8.70
2022-12-29T13:31:18.233Z,8.70
2022-12-29T13:36:30.099Z,8.70
2022-12-29T13:41:38.436Z,8.70
2022-12-29T13:46:43.431Z,8.70
2022-12-29T13:51:50.280Z,8.70
2022-12-29T13:56:58.934Z,8.70
2022-12-29T14:02:10.032Z,8.70
2022-12-29T14:07:19.461Z,8.70
2022-12-29T14:12:38.325Z,8.70
2022-12-29T14:17:39.964Z,8.70
2022-12-29T14:23:01.565Z,8.68
2022-12-29T14:28:00.605Z,8.64
2022-12-29T14:33:18.320Z,8.66
2022-12-29T14:38:26.973Z,8.70
2022-12-29T14:43:30.275Z,8.70
2022-12-29T14:48:44.651Z,8.70
2022-12-29T14:53:54.198Z,8.70
2022-12-29T14:58:58.467Z,8.70
2022-12-29T15:04:07.528Z,8.70
2022-12-29T15:09:18.772Z,8.70
2022-12-29T15:14:50.333Z,8.70
2022-12-29T15:19:57.379Z,8.70
2022-12-29T15:24:59.068Z,8.60
2022-12-29T15:30:13.816Z,8.50
2022-12-29T15:35:40.479Z,8.40
2022-12-29T15:40:40.293Z,8.40
2022-12-29T15:45:41.535Z,8.40
2022-12-29T15:50:45.532Z,8.30
2022-12-29T15:55:50.919Z,8.30
2022-12-29T16:00:55.658Z,8.30
2022-12-29T16:06:10.134Z,8.24
2022-12-29T16:11:31.931Z,8.20
2022-12-29T16:16:38.360Z,8.20
2022-12-29T16:21:40.347Z,8.14
2022-12-29T16:26:39.846Z,8.10
2022-12-29T16:31:54.672Z,8.20
2022-12-29T16:37:03.838Z,8.20
2022-12-29T16:42:24.501Z,8.20
2022-12-29T16:47:25.924Z,8.20
2022-12-29T16:52:32.727Z,8.30
2022-12-29T16:57:37.372Z,8.30
2022-12-29T17:02:47.312Z,8.30
2022-12-29T17:07:47.254Z,8.30
2022-12-29T17:12:49.987Z,8.40
2022-12-29T17:17:52.208Z,8.40
2022-12-29T17:22:53.105Z,8.48
2022-12-29T17:27:58.192Z,8.50
2022-12-29T17:33:04.101Z,8.54
2022-12-29T17:38:03.556Z,8.60
2022-12-29T17:43:03.527Z,8.60
2022-12-29T17:48:03.591Z,8.64
2022-12-29T17:53:08.333Z,8.70
2022-12-29T17:58:18.711Z,8.70
2022-12-29T18:03:23.677Z,8.60
2022-12-29T18:08:24.076Z,8.60
2022-12-29T18:13:43.549Z,8.50
2022-12-29T18:18:45.046Z,8.50
2022-12-29T18:23:44.341Z,8.48
2022-12-29T18:28:44.849Z,8.50
2022-12-29T18:33:44.300Z,8.50
2022-12-29T18:38:44.462Z,8.50
2022-12-29T18:43:48.048Z,8.50
2022-12-29T18:48:47.659Z,8.50
2022-12-29T18:53:47.049Z,8.40
2022-12-29T18:58:46.139Z,8.40
2022-12-29T19:03:46.243Z,8.40
2022-12-29T19:08:45.810Z,8.40
2022-12-29T19:13:45.637Z,8.34
2022-12-29T19:18:48.682Z,8.36
2022-12-29T19:23:52.005Z,8.30
2022-12-29T19:28:52.003Z,8.30
2022-12-29T19:33:51.469Z,8.30
2022-12-29T19:38:51.068Z,8.28
2022-12-29T19:43:50.572Z,8.20
2022-12-29T19:48:50.748Z,8.20
2022-12-29T19:53:50.041Z,8.20
2022-12-29T19:58:50.783Z,8.18
2022-12-29T20:03:50.902Z,8.18
2022-12-29T20:08:50.087Z,8.20
2022-12-29T20:13:50.727Z,8.20
2022-12-29T20:18:50.945Z,8.30
2022-12-29T20:23:51.402Z,8.30
2022-12-29T20:28:51.040Z,8.40
2022-12-29T20:33:50.866Z,8.40
2022-12-29T20:38:52.852Z,8.50
2022-12-29T20:43:53.336Z,8.42
2022-12-29T20:48:55.457Z,8.40
2022-12-29T20:53:55.673Z,8.40
2022-12-29T21:04:16.320Z,8.40
2022-12-29T21:09:15.185Z,8.50
2022-12-29T21:14:15.477Z,8.50
2022-12-29T21:19:16.053Z,8.52
2022-12-29T21:24:16.214Z,8.60
2022-12-29T21:29:15.846Z,8.70
2022-12-29T21:34:15.661Z,8.70
2022-12-29T21:39:16.559Z,8.80
2022-12-29T21:44:33.009Z,8.82
2022-12-29T21:49:32.849Z,8.90
2022-12-29T21:54:51.531Z,8.90
2022-12-29T22:00:22.349Z,8.96
2022-12-29T22:05:40.481Z,8.96
2022-12-29T22:11:01.772Z,8.92
2022-12-29T22:16:03.970Z,8.92
2022-12-29T22:21:06.919Z,8.90
2022-12-29T22:26:12.126Z,8.90
2022-12-29T22:31:27.767Z,8.90
2022-12-29T22:36:30.437Z,8.90
2022-12-29T22:41:30.258Z,8.90
2022-12-29T22:46:29.259Z,8.90
2022-12-29T22:51:33.458Z,8.90
2022-12-29T22:56:32.867Z,8.90
2022-12-29T23:01:36.634Z,8.90
2022-12-29T23:06:41.527Z,8.90
2022-12-29T23:11:41.876Z,8.90
2022-12-29T23:16:45.878Z,8.90
2022-12-29T23:21:46.995Z,8.90
2022-12-29T23:26:49.537Z,8.86
2022-12-29T23:31:50.190Z,8.80
2022-12-29T23:36:51.159Z,8.80
2022-12-29T23:42:05.111Z,8.80
2022-12-29T23:47:06.288Z,8.80
2022-12-29T23:52:06.045Z,8.70
2022-12-29T23:57:04.562Z,8.70
